sensor_id;sensor_type;location;lat;lon;timestamp;temperature;humidity
49855;DHT22;35752;52.164;21.244;2022-12-07T00:01:22;2.90;99.90
49855;DHT22;35752;52.164;21.244;2022-12-07T00:03:50;2.90;99.90
49855;DHT22;35752;52.164;21.244;2022-12-07T00:06:17;2.90;99.90
49855;DHT22;35752;52.164;21.244;2022-12-07T00:08:43;2.90;99.90
49855;DHT22;35752;52.164;21.244;2022-12-07T00:11:14;2.90;99.90
49855;DHT22;35752;52.164;21.244;2022-12-07T00:13:40;2.90;99.90
49855;DHT22;35752;52.164;21.244;2022-12-07T00:16:17;2.90;99.90
49855;DHT22;35752;52.164;21.244;2022-12-07T00:18:44;3.00;99.90
49855;DHT22;35752;52.164;21.244;2022-12-07T00:21:12;3.00;99.90
49855;DHT22;35752;52.164;21.244;2022-12-07T00:23:40;3.00;99.90
49855;DHT22;35752;52.164;21.244;2022-12-07T00:26:08;3.00;99.90
49855;DHT22;35752;52.164;21.244;2022-12-07T00:28:35;3.10;99.90
49855;DHT22;35752;52.164;21.244;2022-12-07T00:31:08;3.00;99.90
49855;DHT22;35752;52.164;21.244;2022-12-07T00:33:35;3.00;99.90
49855;DHT22;35752;52.164;21.244;2022-12-07T00:36:03;2.90;99.90
49855;DHT22;35752;52.164;21.244;2022-12-07T00:38:30;2.90;99.90
49855;DHT22;35752;52.164;21.244;2022-12-07T00:41:02;2.90;99.90
49855;DHT22;35752;52.164;21.244;2022-12-07T00:43:29;3.00;99.90
49855;DHT22;35752;52.164;21.244;2022-12-07T00:45:55;2.90;99.90
49855;DHT22;35752;52.164;21.244;2022-12-07T00:48:21;3.00;99.90
49855;DHT22;35752;52.164;21.244;2022-12-07T00:50:47;3.00;99.90
49855;DHT22;35752;52.164;21.244;2022-12-07T00:53:13;3.00;99.90
49855;DHT22;35752;52.164;21.244;2022-12-07T00:55:38;3.10;99.90
49855;DHT22;35752;52.164;21.244;2022-12-07T00:58:04;3.10;99.90
49855;DHT22;35752;52.164;21.244;2022-12-07T01:00:30;3.10;99.90
49855;DHT22;35752;52.164;21.244;2022-12-07T01:02:56;3.20;99.90
49855;DHT22;35752;52.164;21.244;2022-12-07T01:05:21;3.20;99.90
49855;DHT22;35752;52.164;21.244;2022-12-07T01:07:47;3.10;99.90
49855;DHT22;35752;52.164;21.244;2022-12-07T01:10:14;3.10;99.90
49855;DHT22;35752;52.164;21.244;2022-12-07T01:12:40;3.10;99.90
49855;DHT22;35752;52.164;21.244;2022-12-07T01:15:07;3.20;99.90
49855;DHT22;35752;52.164;21.244;2022-12-07T01:17:33;3.20;99.90
49855;DHT22;35752;52.164;21.244;2022-12-07T01:19:58;3.00;99.90
49855;DHT22;35752;52.164;21.244;2022-12-07T01:22:24;3.00;99.90
49855;DHT22;35752;52.164;21.244;2022-12-07T01:24:50;3.00;99.90
49855;DHT22;35752;52.164;21.244;2022-12-07T01:27:15;3.00;99.90
49855;DHT22;35752;52.164;21.244;2022-12-07T01:29:41;3.00;99.90
49855;DHT22;35752;52.164;21.244;2022-12-07T01:32:07;3.00;99.90
49855;DHT22;35752;52.164;21.244;2022-12-07T01:34:32;3.00;99.90
49855;DHT22;35752;52.164;21.244;2022-12-07T01:36:58;2.90;99.90
49855;DHT22;35752;52.164;21.244;2022-12-07T01:39:24;2.90;99.90
49855;DHT22;35752;52.164;21.244;2022-12-07T01:41:50;2.90;99.90
49855;DHT22;35752;52.164;21.244;2022-12-07T01:46:49;2.90;99.90
49855;DHT22;35752;52.164;21.244;2022-12-07T01:49:21;2.80;99.90
49855;DHT22;35752;52.164;21.244;2022-12-07T01:51:49;2.90;99.90
49855;DHT22;35752;52.164;21.244;2022-12-07T01:54:16;2.80;99.90
49855;DHT22;35752;52.164;21.244;2022-12-07T01:56:47;2.80;99.90
49855;DHT22;35752;52.164;21.244;2022-12-07T01:59:16;2.80;99.90
49855;DHT22;35752;52.164;21.244;2022-12-07T02:01:42;2.80;99.90
49855;DHT22;35752;52.164;21.244;2022-12-07T02:04:07;2.80;99.90
49855;DHT22;35752;52.164;21.244;2022-12-07T02:06:35;2.80;99.90
49855;DHT22;35752;52.164;21.244;2022-12-07T02:09:02;2.80;99.90
49855;DHT22;35752;52.164;21.244;2022-12-07T02:11:27;2.80;99.90
49855;DHT22;35752;52.164;21.244;2022-12-07T02:13:53;2.80;99.90
49855;DHT22;35752;52.164;21.244;2022-12-07T02:28:07;2.80;99.90
49855;DHT22;35752;52.164;21.244;2022-12-07T02:30:42;2.80;99.90
49855;DHT22;35752;52.164;21.244;2022-12-07T02:33:26;2.90;99.90
49855;DHT22;35752;52.164;21.244;2022-12-07T02:36:08;2.90;99.90
49855;DHT22;35752;52.164;21.244;2022-12-07T02:38:44;2.90;99.90
49855;DHT22;35752;52.164;21.244;2022-12-07T02:41:18;2.90;99.90
49855;DHT22;35752;52.164;21.244;2022-12-07T02:43:57;2.90;99.90
49855;DHT22;35752;52.164;21.244;2022-12-07T02:46:32;3.00;99.90
49855;DHT22;35752;52.164;21.244;2022-12-07T02:48:59;2.90;99.90
49855;DHT22;35752;52.164;21.244;2022-12-07T02:51:25;3.00;99.90
49855;DHT22;35752;52.164;21.244;2022-12-07T02:53:51;3.00;99.90
49855;DHT22;35752;52.164;21.244;2022-12-07T03:07:28;3.00;99.90
49855;DHT22;35752;52.164;21.244;2022-12-07T03:10:01;3.00;99.90
49855;DHT22;35752;52.164;21.244;2022-12-07T03:12:32;3.00;99.90
49855;DHT22;35752;52.164;21.244;2022-12-07T03:15:07;3.00;99.90
49855;DHT22;35752;52.164;21.244;2022-12-07T03:17:35;2.90;99.90
49855;DHT22;35752;52.164;21.244;2022-12-07T03:20:04;2.90;99.90
49855;DHT22;35752;52.164;21.244;2022-12-07T03:22:33;2.90;99.90
49855;DHT22;35752;52.164;21.244;2022-12-07T03:25:05;2.90;99.90
49855;DHT22;35752;52.164;21.244;2022-12-07T03:27:35;2.90;99.90
49855;DHT22;35752;52.164;21.244;2022-12-07T03:30:06;2.90;99.90
49855;DHT22;35752;52.164;21.244;2022-12-07T03:32:44;2.90;99.90
49855;DHT22;35752;52.164;21.244;2022-12-07T03:35:24;2.90;99.90
49855;DHT22;35752;52.164;21.244;2022-12-07T03:37:59;2.90;99.90
49855;DHT22;35752;52.164;21.244;2022-12-07T03:42:54;3.00;99.90
49855;DHT22;35752;52.164;21.244;2022-12-07T03:45:25;3.00;99.90
49855;DHT22;35752;52.164;21.244;2022-12-07T03:48:05;2.90;99.90
49855;DHT22;35752;52.164;21.244;2022-12-07T03:53:13;2.90;99.90
49855;DHT22;35752;52.164;21.244;2022-12-07T03:55:43;3.00;99.90
49855;DHT22;35752;52.164;21.244;2022-12-07T03:58:16;3.00;99.90
49855;DHT22;35752;52.164;21.244;2022-12-07T04:00:43;3.00;99.90
49855;DHT22;35752;52.164;21.244;2022-12-07T04:03:10;2.90;99.90
49855;DHT22;35752;52.164;21.244;2022-12-07T04:05:36;3.00;99.90
49855;DHT22;35752;52.164;21.244;2022-12-07T04:08:01;3.00;99.90
49855;DHT22;35752;52.164;21.244;2022-12-07T04:10:27;3.00;99.90
49855;DHT22;35752;52.164;21.244;2022-12-07T04:12:53;2.90;99.90
49855;DHT22;35752;52.164;21.244;2022-12-07T04:15:18;3.00;99.90
49855;DHT22;35752;52.164;21.244;2022-12-07T04:17:44;2.90;99.90
49855;DHT22;35752;52.164;21.244;2022-12-07T04:20:10;2.80;99.90
49855;DHT22;35752;52.164;21.244;2022-12-07T04:22:36;2.80;99.90
49855;DHT22;35752;52.164;21.244;2022-12-07T04:25:02;2.80;99.90
49855;DHT22;35752;52.164;21.244;2022-12-07T04:27:27;2.80;99.90
49855;DHT22;35752;52.164;21.244;2022-12-07T04:29:53;2.80;99.90
49855;DHT22;35752;52.164;21.244;2022-12-07T04:32:20;2.90;99.90
49855;DHT22;35752;52.164;21.244;2022-12-07T04:34:46;2.90;99.90
49855;DHT22;35752;52.164;21.244;2022-12-07T04:37:11;2.90;99.90
49855;DHT22;35752;52.164;21.244;2022-12-07T04:39:37;2.90;99.90
49855;DHT22;35752;52.164;21.244;2022-12-07T04:42:03;2.80;99.90
49855;DHT22;35752;52.164;21.244;2022-12-07T04:44:29;2.80;99.90
49855;DHT22;35752;52.164;21.244;2022-12-07T04:46:55;2.70;99.90
49855;DHT22;35752;52.164;21.244;2022-12-07T04:49:21;2.70;99.90
49855;DHT22;35752;52.164;21.244;2022-12-07T04:51:47;2.70;99.90
49855;DHT22;35752;52.164;21.244;2022-12-07T04:54:13;2.70;99.90
49855;DHT22;35752;52.164;21.244;2022-12-07T04:56:40;2.60;99.90
49855;DHT22;35752;52.164;21.244;2022-12-07T04:59:06;2.70;99.90
49855;DHT22;35752;52.164;21.244;2022-12-07T05:01:33;2.60;99.90
49855;DHT22;35752;52.164;21.244;2022-12-07T05:03:59;2.50;99.90
49855;DHT22;35752;52.164;21.244;2022-12-07T05:06:25;2.50;99.90
49855;DHT22;35752;52.164;21.244;2022-12-07T05:08:50;2.60;99.90
49855;DHT22;35752;52.164;21.244;2022-12-07T05:11:16;2.60;99.90
49855;DHT22;35752;52.164;21.244;2022-12-07T05:14:06;2.50;99.90
49855;DHT22;35752;52.164;21.244;2022-12-07T05:16:32;2.60;99.90
49855;DHT22;35752;52.164;21.244;2022-12-07T05:18:57;2.50;99.90
49855;DHT22;35752;52.164;21.244;2022-12-07T05:21:23;2.50;99.90
49855;DHT22;35752;52.164;21.244;2022-12-07T05:23:49;2.50;99.90
49855;DHT22;35752;52.164;21.244;2022-12-07T05:26:15;2.50;99.90
49855;DHT22;35752;52.164;21.244;2022-12-07T05:28:40;2.50;99.90
49855;DHT22;35752;52.164;21.244;2022-12-07T05:31:06;2.50;99.90
49855;DHT22;35752;52.164;21.244;2022-12-07T05:33:32;2.40;99.90
49855;DHT22;35752;52.164;21.244;2022-12-07T05:35:57;2.40;99.90
49855;DHT22;35752;52.164;21.244;2022-12-07T05:38:23;2.50;99.90
49855;DHT22;35752;52.164;21.244;2022-12-07T05:40:50;2.50;99.90
49855;DHT22;35752;52.164;21.244;2022-12-07T05:43:16;2.50;99.90
49855;DHT22;35752;52.164;21.244;2022-12-07T05:45:41;2.40;99.90
49855;DHT22;35752;52.164;21.244;2022-12-07T05:48:07;2.50;99.90
49855;DHT22;35752;52.164;21.244;2022-12-07T05:50:32;2.50;99.90
49855;DHT22;35752;52.164;21.244;2022-12-07T05:52:58;2.50;99.90
49855;DHT22;35752;52.164;21.244;2022-12-07T05:55:24;2.40;99.90
49855;DHT22;35752;52.164;21.244;2022-12-07T05:57:49;2.50;99.90
49855;DHT22;35752;52.164;21.244;2022-12-07T06:00:34;2.50;99.90
49855;DHT22;35752;52.164;21.244;2022-12-07T06:02:59;2.50;99.90
49855;DHT22;35752;52.164;21.244;2022-12-07T06:05:25;2.40;99.90
49855;DHT22;35752;52.164;21.244;2022-12-07T06:07:51;2.40;99.90
49855;DHT22;35752;52.164;21.244;2022-12-07T06:10:16;2.50;99.90
49855;DHT22;35752;52.164;21.244;2022-12-07T06:12:42;2.40;99.90
49855;DHT22;35752;52.164;21.244;2022-12-07T06:15:09;2.30;99.90
49855;DHT22;35752;52.164;21.244;2022-12-07T06:17:36;2.40;99.90
49855;DHT22;35752;52.164;21.244;2022-12-07T06:20:02;2.30;99.90
49855;DHT22;35752;52.164;21.244;2022-12-07T06:22:28;2.30;99.90
49855;DHT22;35752;52.164;21.244;2022-12-07T06:24:53;2.30;99.90
49855;DHT22;35752;52.164;21.244;2022-12-07T06:27:19;2.30;99.90
49855;DHT22;35752;52.164;21.244;2022-12-07T06:29:45;2.30;99.90
49855;DHT22;35752;52.164;21.244;2022-12-07T06:32:10;2.30;99.90
49855;DHT22;35752;52.164;21.244;2022-12-07T06:34:37;2.30;99.90
49855;DHT22;35752;52.164;21.244;2022-12-07T06:37:03;2.30;99.90
49855;DHT22;35752;52.164;21.244;2022-12-07T06:39:29;2.30;99.90
49855;DHT22;35752;52.164;21.244;2022-12-07T06:41:55;2.30;99.90
49855;DHT22;35752;52.164;21.244;2022-12-07T06:44:22;2.30;99.90
49855;DHT22;35752;52.164;21.244;2022-12-07T06:46:48;2.20;99.90
49855;DHT22;35752;52.164;21.244;2022-12-07T06:49:14;2.30;99.90
49855;DHT22;35752;52.164;21.244;2022-12-07T06:51:39;2.30;99.90
49855;DHT22;35752;52.164;21.244;2022-12-07T06:54:08;2.20;99.90
49855;DHT22;35752;52.164;21.244;2022-12-07T06:56:34;2.20;99.90
49855;DHT22;35752;52.164;21.244;2022-12-07T06:58:59;2.20;99.90
49855;DHT22;35752;52.164;21.244;2022-12-07T07:01:25;2.20;99.90
49855;DHT22;35752;52.164;21.244;2022-12-07T07:03:50;2.10;99.90
49855;DHT22;35752;52.164;21.244;2022-12-07T07:06:16;2.20;99.90
49855;DHT22;35752;52.164;21.244;2022-12-07T07:08:42;2.20;99.90
49855;DHT22;35752;52.164;21.244;2022-12-07T07:11:08;2.30;99.90
49855;DHT22;35752;52.164;21.244;2022-12-07T07:13:35;2.20;99.90
49855;DHT22;35752;52.164;21.244;2022-12-07T07:16:01;2.20;99.90
49855;DHT22;35752;52.164;21.244;2022-12-07T07:18:27;2.20;99.90
49855;DHT22;35752;52.164;21.244;2022-12-07T07:20:53;2.30;99.90
49855;DHT22;35752;52.164;21.244;2022-12-07T07:23:20;2.20;99.90
49855;DHT22;35752;52.164;21.244;2022-12-07T07:25:46;2.20;99.90
49855;DHT22;35752;52.164;21.244;2022-12-07T07:28:11;2.30;99.90
49855;DHT22;35752;52.164;21.244;2022-12-07T07:30:37;2.30;99.90
49855;DHT22;35752;52.164;21.244;2022-12-07T07:33:04;2.30;99.90
49855;DHT22;35752;52.164;21.244;2022-12-07T07:35:32;2.30;99.90
49855;DHT22;35752;52.164;21.244;2022-12-07T07:37:58;2.30;99.90
49855;DHT22;35752;52.164;21.244;2022-12-07T07:40:24;2.40;99.90
49855;DHT22;35752;52.164;21.244;2022-12-07T07:42:54;2.30;99.90
49855;DHT22;35752;52.164;21.244;2022-12-07T07:45:21;2.30;99.90
49855;DHT22;35752;52.164;21.244;2022-12-07T07:47:47;2.20;99.90
49855;DHT22;35752;52.164;21.244;2022-12-07T07:50:13;2.30;99.90
49855;DHT22;35752;52.164;21.244;2022-12-07T07:52:38;2.20;99.90
49855;DHT22;35752;52.164;21.244;2022-12-07T07:55:05;2.10;99.90
49855;DHT22;35752;52.164;21.244;2022-12-07T07:57:31;2.20;99.90
49855;DHT22;35752;52.164;21.244;2022-12-07T07:59:56;2.30;99.90
49855;DHT22;35752;52.164;21.244;2022-12-07T08:02:22;2.20;99.90
49855;DHT22;35752;52.164;21.244;2022-12-07T08:04:48;2.20;99.90
49855;DHT22;35752;52.164;21.244;2022-12-07T08:07:15;2.10;99.90
49855;DHT22;35752;52.164;21.244;2022-12-07T08:09:41;2.20;99.90
49855;DHT22;35752;52.164;21.244;2022-12-07T08:12:07;2.10;99.90
49855;DHT22;35752;52.164;21.244;2022-12-07T08:14:33;2.10;99.90
49855;DHT22;35752;52.164;21.244;2022-12-07T08:16:59;2.10;99.90
49855;DHT22;35752;52.164;21.244;2022-12-07T08:19:25;2.20;99.90
49855;DHT22;35752;52.164;21.244;2022-12-07T08:21:50;2.10;99.90
49855;DHT22;35752;52.164;21.244;2022-12-07T08:24:16;2.20;99.90
49855;DHT22;35752;52.164;21.244;2022-12-07T08:26:42;2.20;99.90
49855;DHT22;35752;52.164;21.244;2022-12-07T08:29:08;2.20;99.90
49855;DHT22;35752;52.164;21.244;2022-12-07T08:31:34;2.10;99.90
49855;DHT22;35752;52.164;21.244;2022-12-07T08:34:00;2.20;99.90
49855;DHT22;35752;52.164;21.244;2022-12-07T08:36:26;2.20;99.90
49855;DHT22;35752;52.164;21.244;2022-12-07T08:38:51;2.20;99.90
49855;DHT22;35752;52.164;21.244;2022-12-07T08:41:17;2.20;99.90
49855;DHT22;35752;52.164;21.244;2022-12-07T08:43:43;2.20;99.90
49855;DHT22;35752;52.164;21.244;2022-12-07T08:46:21;2.20;99.90
49855;DHT22;35752;52.164;21.244;2022-12-07T08:48:58;2.20;99.90
49855;DHT22;35752;52.164;21.244;2022-12-07T08:51:26;2.20;99.90
49855;DHT22;35752;52.164;21.244;2022-12-07T08:53:52;2.30;99.90
49855;DHT22;35752;52.164;21.244;2022-12-07T08:56:19;2.20;99.90
49855;DHT22;35752;52.164;21.244;2022-12-07T08:58:46;2.20;99.90
49855;DHT22;35752;52.164;21.244;2022-12-07T09:01:12;2.20;99.90
49855;DHT22;35752;52.164;21.244;2022-12-07T09:03:38;2.30;99.90
49855;DHT22;35752;52.164;21.244;2022-12-07T09:06:04;2.30;99.90
49855;DHT22;35752;52.164;21.244;2022-12-07T09:08:42;2.20;99.90
49855;DHT22;35752;52.164;21.244;2022-12-07T09:11:09;2.30;99.90
49855;DHT22;35752;52.164;21.244;2022-12-07T09:13:34;2.20;99.90
49855;DHT22;35752;52.164;21.244;2022-12-07T09:16:00;2.20;99.90
49855;DHT22;35752;52.164;21.244;2022-12-07T09:18:26;2.30;99.90
49855;DHT22;35752;52.164;21.244;2022-12-07T09:20:52;2.30;99.90
49855;DHT22;35752;52.164;21.244;2022-12-07T09:23:17;2.40;99.90
49855;DHT22;35752;52.164;21.244;2022-12-07T09:25:43;2.40;99.90
49855;DHT22;35752;52.164;21.244;2022-12-07T09:28:09;2.50;99.90
49855;DHT22;35752;52.164;21.244;2022-12-07T09:30:35;2.60;99.90
49855;DHT22;35752;52.164;21.244;2022-12-07T09:33:01;2.60;99.90
49855;DHT22;35752;52.164;21.244;2022-12-07T09:35:27;2.70;99.90
49855;DHT22;35752;52.164;21.244;2022-12-07T09:37:53;2.70;99.90
49855;DHT22;35752;52.164;21.244;2022-12-07T09:40:20;2.70;99.90
49855;DHT22;35752;52.164;21.244;2022-12-07T09:42:49;2.70;99.90
49855;DHT22;35752;52.164;21.244;2022-12-07T09:45:22;2.80;99.90
49855;DHT22;35752;52.164;21.244;2022-12-07T09:47:48;2.80;99.90
49855;DHT22;35752;52.164;21.244;2022-12-07T09:50:26;2.90;99.90
49855;DHT22;35752;52.164;21.244;2022-12-07T09:52:52;2.90;99.90
49855;DHT22;35752;52.164;21.244;2022-12-07T09:55:28;2.90;99.90
49855;DHT22;35752;52.164;21.244;2022-12-07T09:57:55;2.90;99.90
49855;DHT22;35752;52.164;21.244;2022-12-07T10:00:22;2.90;99.90
49855;DHT22;35752;52.164;21.244;2022-12-07T10:03:08;3.00;99.90
49855;DHT22;35752;52.164;21.244;2022-12-07T10:05:48;3.10;99.90
49855;DHT22;35752;52.164;21.244;2022-12-07T10:08:15;3.00;99.90
49855;DHT22;35752;52.164;21.244;2022-12-07T10:10:45;3.00;99.90
49855;DHT22;35752;52.164;21.244;2022-12-07T10:13:13;3.00;99.90
49855;DHT22;35752;52.164;21.244;2022-12-07T10:23:41;3.10;99.90
49855;DHT22;35752;52.164;21.244;2022-12-07T10:26:29;3.20;99.90
49855;DHT22;35752;52.164;21.244;2022-12-07T10:28:58;3.20;99.90
49855;DHT22;35752;52.164;21.244;2022-12-07T10:31:24;3.20;99.90
49855;DHT22;35752;52.164;21.244;2022-12-07T10:33:51;3.20;99.90
49855;DHT22;35752;52.164;21.244;2022-12-07T10:36:35;3.20;99.90
49855;DHT22;35752;52.164;21.244;2022-12-07T10:41:27;3.20;99.90
49855;DHT22;35752;52.164;21.244;2022-12-07T10:43:55;3.20;99.90
49855;DHT22;35752;52.164;21.244;2022-12-07T10:55:16;3.30;99.90
49855;DHT22;35752;52.164;21.244;2022-12-07T11:11:55;3.30;99.90
49855;DHT22;35752;52.164;21.244;2022-12-07T11:25:31;3.40;99.90
49855;DHT22;35752;52.164;21.244;2022-12-07T11:28:17;3.40;99.90
49855;DHT22;35752;52.164;21.244;2022-12-07T11:33:40;3.40;99.90
49855;DHT22;35752;52.164;21.244;2022-12-07T11:38:52;3.40;99.90
49855;DHT22;35752;52.164;21.244;2022-12-07T11:41:24;3.40;99.90
49855;DHT22;35752;52.164;21.244;2022-12-07T11:44:39;3.40;99.90
49855;DHT22;35752;52.164;21.244;2022-12-07T11:49:43;3.30;99.90
49855;DHT22;35752;52.164;21.244;2022-12-07T11:55:23;3.30;99.90
49855;DHT22;35752;52.164;21.244;2022-12-07T11:57:56;3.40;99.90
49855;DHT22;35752;52.164;21.244;2022-12-07T12:00:23;3.40;99.90
49855;DHT22;35752;52.164;21.244;2022-12-07T12:05:18;3.40;99.90
49855;DHT22;35752;52.164;21.244;2022-12-07T12:07:58;3.50;99.90
49855;DHT22;35752;52.164;21.244;2022-12-07T12:10:37;3.50;99.90
49855;DHT22;35752;52.164;21.244;2022-12-07T12:21:09;3.40;99.90
49855;DHT22;35752;52.164;21.244;2022-12-07T12:23:45;3.40;99.90
49855;DHT22;35752;52.164;21.244;2022-12-07T12:26:24;3.40;99.90
49855;DHT22;35752;52.164;21.244;2022-12-07T12:29:00;3.50;99.90
49855;DHT22;35752;52.164;21.244;2022-12-07T12:34:01;3.50;99.90
49855;DHT22;35752;52.164;21.244;2022-12-07T12:47:37;3.30;99.90
49855;DHT22;35752;52.164;21.244;2022-12-07T12:50:15;3.30;99.90
49855;DHT22;35752;52.164;21.244;2022-12-07T12:57:36;3.30;99.90
49855;DHT22;35752;52.164;21.244;2022-12-07T13:00:21;3.30;99.90
49855;DHT22;35752;52.164;21.244;2022-12-07T13:02:57;3.30;99.90
49855;DHT22;35752;52.164;21.244;2022-12-07T13:05:29;3.20;99.90
49855;DHT22;35752;52.164;21.244;2022-12-07T13:20:56;3.20;99.90
49855;DHT22;35752;52.164;21.244;2022-12-07T13:29:16;3.20;99.90
49855;DHT22;35752;52.164;21.244;2022-12-07T13:31:50;3.20;99.90
49855;DHT22;35752;52.164;21.244;2022-12-07T13:37:00;3.20;99.90
49855;DHT22;35752;52.164;21.244;2022-12-07T13:39:28;3.30;99.90
49855;DHT22;35752;52.164;21.244;2022-12-07T13:42:11;3.20;99.90
49855;DHT22;35752;52.164;21.244;2022-12-07T13:44:40;3.20;99.90
49855;DHT22;35752;52.164;21.244;2022-12-07T13:47:13;3.20;99.90
49855;DHT22;35752;52.164;21.244;2022-12-07T13:49:49;3.20;99.90
49855;DHT22;35752;52.164;21.244;2022-12-07T13:54:49;3.20;99.90
49855;DHT22;35752;52.164;21.244;2022-12-07T13:57:21;3.10;99.90
49855;DHT22;35752;52.164;21.244;2022-12-07T13:59:47;3.10;99.90
49855;DHT22;35752;52.164;21.244;2022-12-07T14:02:33;3.10;99.90
49855;DHT22;35752;52.164;21.244;2022-12-07T14:05:14;3.10;99.90
49855;DHT22;35752;52.164;21.244;2022-12-07T14:16:23;3.10;99.90
49855;DHT22;35752;52.164;21.244;2022-12-07T14:18:53;3.10;99.90
49855;DHT22;35752;52.164;21.244;2022-12-07T14:21:25;3.20;99.90
49855;DHT22;35752;52.164;21.244;2022-12-07T14:24:19;3.20;99.90
49855;DHT22;35752;52.164;21.244;2022-12-07T14:26:46;3.10;99.90
49855;DHT22;35752;52.164;21.244;2022-12-07T14:29:31;3.10;99.90
49855;DHT22;35752;52.164;21.244;2022-12-07T14:32:08;3.10;99.90
49855;DHT22;35752;52.164;21.244;2022-12-07T14:34:36;3.10;99.90
49855;DHT22;35752;52.164;21.244;2022-12-07T14:37:01;3.00;99.90
49855;DHT22;35752;52.164;21.244;2022-12-07T14:39:27;3.00;99.90
49855;DHT22;35752;52.164;21.244;2022-12-07T14:41:53;3.00;99.90
49855;DHT22;35752;52.164;21.244;2022-12-07T14:44:23;3.00;99.90
49855;DHT22;35752;52.164;21.244;2022-12-07T14:46:49;2.90;99.90
49855;DHT22;35752;52.164;21.244;2022-12-07T14:49:15;2.90;99.90
49855;DHT22;35752;52.164;21.244;2022-12-07T14:51:42;2.80;99.90
49855;DHT22;35752;52.164;21.244;2022-12-07T14:54:16;2.80;99.90
49855;DHT22;35752;52.164;21.244;2022-12-07T14:56:42;2.70;99.90
49855;DHT22;35752;52.164;21.244;2022-12-07T14:59:10;2.70;99.90
49855;DHT22;35752;52.164;21.244;2022-12-07T15:01:36;2.70;99.90
49855;DHT22;35752;52.164;21.244;2022-12-07T15:04:02;2.60;99.90
49855;DHT22;35752;52.164;21.244;2022-12-07T15:06:27;2.60;99.90
49855;DHT22;35752;52.164;21.244;2022-12-07T15:08:53;2.70;99.90
49855;DHT22;35752;52.164;21.244;2022-12-07T15:11:20;2.70;99.90
49855;DHT22;35752;52.164;21.244;2022-12-07T15:13:46;2.70;99.90
49855;DHT22;35752;52.164;21.244;2022-12-07T15:16:30;2.60;99.90
49855;DHT22;35752;52.164;21.244;2022-12-07T15:18:56;2.60;99.90
49855;DHT22;35752;52.164;21.244;2022-12-07T15:21:22;2.60;99.90
49855;DHT22;35752;52.164;21.244;2022-12-07T15:23:47;2.50;99.90
49855;DHT22;35752;52.164;21.244;2022-12-07T15:26:13;2.50;99.90
49855;DHT22;35752;52.164;21.244;2022-12-07T15:28:40;2.50;99.90
49855;DHT22;35752;52.164;21.244;2022-12-07T15:31:16;2.50;99.90
49855;DHT22;35752;52.164;21.244;2022-12-07T15:33:42;2.50;99.90
49855;DHT22;35752;52.164;21.244;2022-12-07T15:36:18;2.50;99.90
49855;DHT22;35752;52.164;21.244;2022-12-07T15:38:44;2.50;99.90
49855;DHT22;35752;52.164;21.244;2022-12-07T15:41:09;2.50;99.90
49855;DHT22;35752;52.164;21.244;2022-12-07T15:43:36;2.50;99.90
49855;DHT22;35752;52.164;21.244;2022-12-07T15:46:20;2.60;99.90
49855;DHT22;35752;52.164;21.244;2022-12-07T15:48:46;2.60;99.90
49855;DHT22;35752;52.164;21.244;2022-12-07T15:51:11;2.60;99.90
49855;DHT22;35752;52.164;21.244;2022-12-07T15:53:37;2.60;99.90
49855;DHT22;35752;52.164;21.244;2022-12-07T15:56:07;2.60;99.90
49855;DHT22;35752;52.164;21.244;2022-12-07T15:58:33;2.60;99.90
49855;DHT22;35752;52.164;21.244;2022-12-07T16:00:59;2.60;99.90
49855;DHT22;35752;52.164;21.244;2022-12-07T16:03:27;2.60;99.90
49855;DHT22;35752;52.164;21.244;2022-12-07T16:05:53;2.60;99.90
49855;DHT22;35752;52.164;21.244;2022-12-07T16:08:19;2.60;99.90
49855;DHT22;35752;52.164;21.244;2022-12-07T16:10:45;2.60;99.90
49855;DHT22;35752;52.164;21.244;2022-12-07T16:13:11;2.60;99.90
49855;DHT22;35752;52.164;21.244;2022-12-07T16:15:39;2.50;99.90
49855;DHT22;35752;52.164;21.244;2022-12-07T16:18:04;2.50;99.90
49855;DHT22;35752;52.164;21.244;2022-12-07T16:20:30;2.50;99.90
49855;DHT22;35752;52.164;21.244;2022-12-07T16:22:56;2.40;99.90
49855;DHT22;35752;52.164;21.244;2022-12-07T16:25:21;2.40;99.90
49855;DHT22;35752;52.164;21.244;2022-12-07T16:27:47;2.50;99.90
49855;DHT22;35752;52.164;21.244;2022-12-07T16:30:14;2.40;99.90
49855;DHT22;35752;52.164;21.244;2022-12-07T16:32:41;2.50;99.90
49855;DHT22;35752;52.164;21.244;2022-12-07T16:35:08;2.50;99.90
49855;DHT22;35752;52.164;21.244;2022-12-07T16:37:33;2.50;99.90
49855;DHT22;35752;52.164;21.244;2022-12-07T16:39:59;2.50;99.90
49855;DHT22;35752;52.164;21.244;2022-12-07T16:42:24;2.60;99.90
49855;DHT22;35752;52.164;21.244;2022-12-07T16:44:50;2.50;99.90
49855;DHT22;35752;52.164;21.244;2022-12-07T16:47:16;2.50;99.90
49855;DHT22;35752;52.164;21.244;2022-12-07T16:49:42;2.50;99.90
49855;DHT22;35752;52.164;21.244;2022-12-07T16:52:08;2.40;99.90
49855;DHT22;35752;52.164;21.244;2022-12-07T16:54:35;2.40;99.90
49855;DHT22;35752;52.164;21.244;2022-12-07T16:57:01;2.40;99.90
49855;DHT22;35752;52.164;21.244;2022-12-07T16:59:27;2.30;99.90
49855;DHT22;35752;52.164;21.244;2022-12-07T17:01:52;2.30;99.90
49855;DHT22;35752;52.164;21.244;2022-12-07T17:04:18;2.10;99.90
49855;DHT22;35752;52.164;21.244;2022-12-07T17:06:43;2.10;99.90
49855;DHT22;35752;52.164;21.244;2022-12-07T17:09:09;2.10;99.90
49855;DHT22;35752;52.164;21.244;2022-12-07T17:11:37;2.10;99.90
49855;DHT22;35752;52.164;21.244;2022-12-07T17:14:03;2.10;99.90
49855;DHT22;35752;52.164;21.244;2022-12-07T17:16:55;2.10;99.90
49855;DHT22;35752;52.164;21.244;2022-12-07T17:19:20;2.20;99.90
49855;DHT22;35752;52.164;21.244;2022-12-07T17:21:46;2.20;99.90
49855;DHT22;35752;52.164;21.244;2022-12-07T17:24:15;2.20;99.90
49855;DHT22;35752;52.164;21.244;2022-12-07T17:26:42;2.20;99.90
49855;DHT22;35752;52.164;21.244;2022-12-07T17:29:10;2.30;99.90
49855;DHT22;35752;52.164;21.244;2022-12-07T17:31:36;2.40;99.90
49855;DHT22;35752;52.164;21.244;2022-12-07T17:34:03;2.40;99.90
49855;DHT22;35752;52.164;21.244;2022-12-07T17:36:30;2.30;99.90
49855;DHT22;35752;52.164;21.244;2022-12-07T17:38:56;2.30;99.90
49855;DHT22;35752;52.164;21.244;2022-12-07T17:41:24;2.20;99.90
49855;DHT22;35752;52.164;21.244;2022-12-07T17:44:11;2.20;99.90
49855;DHT22;35752;52.164;21.244;2022-12-07T17:46:37;2.20;99.90
49855;DHT22;35752;52.164;21.244;2022-12-07T17:49:04;2.30;99.90
49855;DHT22;35752;52.164;21.244;2022-12-07T17:51:30;2.30;99.90
49855;DHT22;35752;52.164;21.244;2022-12-07T17:54:16;2.20;99.90
49855;DHT22;35752;52.164;21.244;2022-12-07T17:56:42;2.20;99.90
49855;DHT22;35752;52.164;21.244;2022-12-07T17:59:08;2.20;99.90
49855;DHT22;35752;52.164;21.244;2022-12-07T18:01:34;2.20;99.90
49855;DHT22;35752;52.164;21.244;2022-12-07T18:04:00;2.20;99.90
49855;DHT22;35752;52.164;21.244;2022-12-07T18:06:25;2.20;99.90